sensor_id;sensor_type;location;lat;lon;timestamp;P1;durP1;ratioP1;P2;durP2;ratioP2
67776;SDS011;54576;52.020;5.536;2023-01-23T00:00:39;19.95;;;10.00;;
67776;SDS011;54576;52.020;5.536;2023-01-23T00:03:06;15.18;;;6.22;;
67776;SDS011;54576;52.020;5.536;2023-01-23T00:05:33;20.17;;;9.82;;
67776;SDS011;54576;52.020;5.536;2023-01-23T00:08:00;19.60;;;9.57;;
67776;SDS011;54576;52.020;5.536;2023-01-23T00:10:27;20.75;;;7.97;;
67776;SDS011;54576;52.020;5.536;2023-01-23T00:12:52;23.35;;;9.48;;
67776;SDS011;54576;52.020;5.536;2023-01-23T00:15:18;16.45;;;8.35;;
67776;SDS011;54576;52.020;5.536;2023-01-23T00:17:44;20.52;;;9.55;;
67776;SDS011;54576;52.020;5.536;2023-01-23T00:20:10;19.10;;;9.60;;
67776;SDS011;54576;52.020;5.536;2023-01-23T00:22:36;25.05;;;10.60;;
67776;SDS011;54576;52.020;5.536;2023-01-23T00:25:04;16.48;;;10.07;;
67776;SDS011;54576;52.020;5.536;2023-01-23T00:27:30;16.55;;;9.45;;
67776;SDS011;54576;52.020;5.536;2023-01-23T00:29:56;23.73;;;10.63;;
67776;SDS011;54576;52.020;5.536;2023-01-23T00:32:22;18.23;;;9.32;;
67776;SDS011;54576;52.020;5.536;2023-01-23T00:34:49;14.50;;;9.50;;
67776;SDS011;54576;52.020;5.536;2023-01-23T00:37:15;23.88;;;10.70;;
67776;SDS011;54576;52.020;5.536;2023-01-23T00:39:42;22.92;;;9.35;;
67776;SDS011;54576;52.020;5.536;2023-01-23T00:42:09;26.70;;;10.90;;
67776;SDS011;54576;52.020;5.536;2023-01-23T00:44:35;23.50;;;10.35;;
67776;SDS011;54576;52.020;5.536;2023-01-23T00:47:01;19.23;;;9.65;;
67776;SDS011;54576;52.020;5.536;2023-01-23T00:49:26;23.00;;;9.90;;
67776;SDS011;54576;52.020;5.536;2023-01-23T00:51:54;18.50;;;10.20;;
67776;SDS011;54576;52.020;5.536;2023-01-23T00:54:20;19.23;;;9.63;;
67776;SDS011;54576;52.020;5.536;2023-01-23T00:56:48;16.38;;;9.55;;
67776;SDS011;54576;52.020;5.536;2023-01-23T00:59:13;23.05;;;9.23;;
67776;SDS011;54576;52.020;5.536;2023-01-23T01:01:39;21.77;;;10.45;;
67776;SDS011;54576;52.020;5.536;2023-01-23T01:04:04;18.17;;;9.88;;
67776;SDS011;54576;52.020;5.536;2023-01-23T01:06:30;16.38;;;8.52;;
67776;SDS011;54576;52.020;5.536;2023-01-23T01:08:56;17.02;;;8.27;;
67776;SDS011;54576;52.020;5.536;2023-01-23T01:11:23;21.38;;;10.13;;
67776;SDS011;54576;52.020;5.536;2023-01-23T01:13:49;22.27;;;10.00;;
67776;SDS011;54576;52.020;5.536;2023-01-23T01:16:16;13.32;;;8.10;;
67776;SDS011;54576;52.020;5.536;2023-01-23T01:18:42;23.20;;;10.27;;
67776;SDS011;54576;52.020;5.536;2023-01-23T01:21:09;31.90;;;8.70;;
67776;SDS011;54576;52.020;5.536;2023-01-23T01:23:36;22.50;;;10.55;;
67776;SDS011;54576;52.020;5.536;2023-01-23T01:26:04;18.73;;;10.18;;
67776;SDS011;54576;52.020;5.536;2023-01-23T01:28:31;20.80;;;10.00;;
67776;SDS011;54576;52.020;5.536;2023-01-23T01:31:01;26.55;;;10.20;;
67776;SDS011;54576;52.020;5.536;2023-01-23T01:33:29;20.98;;;10.60;;
67776;SDS011;54576;52.020;5.536;2023-01-23T01:35:57;24.50;;;11.02;;
67776;SDS011;54576;52.020;5.536;2023-01-23T01:38:22;25.80;;;11.25;;
67776;SDS011;54576;52.020;5.536;2023-01-23T01:40:48;26.58;;;10.50;;
67776;SDS011;54576;52.020;5.536;2023-01-23T01:43:18;22.20;;;10.23;;
67776;SDS011;54576;52.020;5.536;2023-01-23T01:48:37;18.15;;;9.32;;
67776;SDS011;54576;52.020;5.536;2023-01-23T01:51:15;17.40;;;9.98;;
67776;SDS011;54576;52.020;5.536;2023-01-23T01:53:45;29.10;;;11.05;;
67776;SDS011;54576;52.020;5.536;2023-01-23T01:56:13;22.23;;;11.23;;
67776;SDS011;54576;52.020;5.536;2023-01-23T01:58:43;17.42;;;9.50;;
67776;SDS011;54576;52.020;5.536;2023-01-23T02:01:12;24.60;;;10.50;;
67776;SDS011;54576;52.020;5.536;2023-01-23T02:03:37;26.13;;;10.65;;
67776;SDS011;54576;52.020;5.536;2023-01-23T02:06:03;27.27;;;10.73;;
67776;SDS011;54576;52.020;5.536;2023-01-23T02:08:33;22.77;;;10.63;;
67776;SDS011;54576;52.020;5.536;2023-01-23T02:11:06;29.27;;;10.55;;
67776;SDS011;54576;52.020;5.536;2023-01-23T02:13:33;26.00;;;11.43;;
67776;SDS011;54576;52.020;5.536;2023-01-23T02:16:05;24.88;;;11.68;;
67776;SDS011;54576;52.020;5.536;2023-01-23T02:18:38;22.33;;;10.95;;
67776;SDS011;54576;52.020;5.536;2023-01-23T02:21:08;23.63;;;12.00;;
67776;SDS011;54576;52.020;5.536;2023-01-23T02:26:27;26.35;;;11.77;;
67776;SDS011;54576;52.020;5.536;2023-01-23T02:28:57;25.02;;;12.27;;
67776;SDS011;54576;52.020;5.536;2023-01-23T02:31:23;26.50;;;11.70;;
67776;SDS011;54576;52.020;5.536;2023-01-23T02:33:53;20.67;;;10.88;;
67776;SDS011;54576;52.020;5.536;2023-01-23T02:36:24;27.17;;;11.38;;
67776;SDS011;54576;52.020;5.536;2023-01-23T02:41:35;30.75;;;12.45;;
67776;SDS011;54576;52.020;5.536;2023-01-23T02:44:05;27.17;;;11.98;;
67776;SDS011;54576;52.020;5.536;2023-01-23T02:46:57;27.05;;;11.73;;
67776;SDS011;54576;52.020;5.536;2023-01-23T02:49:25;23.83;;;11.75;;
67776;SDS011;54576;52.020;5.536;2023-01-23T02:51:51;31.95;;;13.05;;
67776;SDS011;54576;52.020;5.536;2023-01-23T02:54:18;23.15;;;10.35;;
67776;SDS011;54576;52.020;5.536;2023-01-23T02:56:44;26.83;;;12.05;;
67776;SDS011;54576;52.020;5.536;2023-01-23T02:59:11;35.40;;;13.38;;
67776;SDS011;54576;52.020;5.536;2023-01-23T03:01:55;26.40;;;12.60;;
67776;SDS011;54576;52.020;5.536;2023-01-23T03:04:21;27.75;;;13.32;;
67776;SDS011;54576;52.020;5.536;2023-01-23T03:06:47;27.75;;;13.48;;
67776;SDS011;54576;52.020;5.536;2023-01-23T03:09:15;35.22;;;13.35;;
67776;SDS011;54576;52.020;5.536;2023-01-23T03:11:42;30.45;;;13.00;;
67776;SDS011;54576;52.020;5.536;2023-01-23T03:14:10;37.30;;;12.02;;
67776;SDS011;54576;52.020;5.536;2023-01-23T03:16:37;28.40;;;13.33;;
67776;SDS011;54576;52.020;5.536;2023-01-23T03:19:07;31.42;;;13.65;;
67776;SDS011;54576;52.020;5.536;2023-01-23T03:21:38;32.50;;;13.75;;
67776;SDS011;54576;52.020;5.536;2023-01-23T03:24:05;38.05;;;13.18;;
67776;SDS011;54576;52.020;5.536;2023-01-23T03:26:32;34.08;;;13.05;;
67776;SDS011;54576;52.020;5.536;2023-01-23T03:29:01;32.28;;;13.52;;
67776;SDS011;54576;52.020;5.536;2023-01-23T03:31:45;27.65;;;13.48;;
67776;SDS011;54576;52.020;5.536;2023-01-23T03:34:12;21.63;;;12.30;;
67776;SDS011;54576;52.020;5.536;2023-01-23T03:36:38;31.52;;;13.18;;
67776;SDS011;54576;52.020;5.536;2023-01-23T03:39:06;33.47;;;12.73;;
67776;SDS011;54576;52.020;5.536;2023-01-23T03:41:51;37.10;;;13.45;;
67776;SDS011;54576;52.020;5.536;2023-01-23T03:44:17;25.75;;;11.90;;
67776;SDS011;54576;52.020;5.536;2023-01-23T03:46:44;25.75;;;13.20;;
67776;SDS011;54576;52.020;5.536;2023-01-23T03:49:11;29.73;;;13.63;;
67776;SDS011;54576;52.020;5.536;2023-01-23T03:51:37;29.40;;;12.52;;
67776;SDS011;54576;52.020;5.536;2023-01-23T03:54:04;37.38;;;14.65;;
67776;SDS011;54576;52.020;5.536;2023-01-23T03:56:30;27.02;;;12.23;;
67776;SDS011;54576;52.020;5.536;2023-01-23T03:58:55;33.88;;;13.55;;
67776;SDS011;54576;52.020;5.536;2023-01-23T04:01:29;36.15;;;14.52;;
67776;SDS011;54576;52.020;5.536;2023-01-23T04:03:55;28.65;;;12.52;;
67776;SDS011;54576;52.020;5.536;2023-01-23T04:06:21;26.17;;;12.95;;
67776;SDS011;54576;52.020;5.536;2023-01-23T04:08:46;34.38;;;13.35;;
67776;SDS011;54576;52.020;5.536;2023-01-23T04:11:12;31.38;;;12.73;;
67776;SDS011;54576;52.020;5.536;2023-01-23T04:13:42;33.17;;;13.18;;
67776;SDS011;54576;52.020;5.536;2023-01-23T04:16:07;33.92;;;13.25;;
67776;SDS011;54576;52.020;5.536;2023-01-23T04:18:35;31.85;;;13.60;;
67776;SDS011;54576;52.020;5.536;2023-01-23T04:21:02;21.95;;;8.63;;
67776;SDS011;54576;52.020;5.536;2023-01-23T04:23:28;26.98;;;13.15;;
67776;SDS011;54576;52.020;5.536;2023-01-23T04:25:53;31.30;;;12.70;;
67776;SDS011;54576;52.020;5.536;2023-01-23T04:28:19;31.00;;;12.70;;
67776;SDS011;54576;52.020;5.536;2023-01-23T04:30:48;27.25;;;12.98;;
67776;SDS011;54576;52.020;5.536;2023-01-23T04:33:15;28.38;;;12.65;;
67776;SDS011;54576;52.020;5.536;2023-01-23T04:35:48;25.02;;;13.00;;
67776;SDS011;54576;52.020;5.536;2023-01-23T04:38:34;29.48;;;13.10;;
67776;SDS011;54576;52.020;5.536;2023-01-23T04:41:00;35.05;;;14.05;;
67776;SDS011;54576;52.020;5.536;2023-01-23T04:43:28;28.42;;;13.50;;
67776;SDS011;54576;52.020;5.536;2023-01-23T04:45:54;33.97;;;13.13;;
67776;SDS011;54576;52.020;5.536;2023-01-23T04:48:21;27.42;;;13.57;;
67776;SDS011;54576;52.020;5.536;2023-01-23T04:50:47;32.53;;;13.90;;
67776;SDS011;54576;52.020;5.536;2023-01-23T04:53:13;32.55;;;12.40;;
67776;SDS011;54576;52.020;5.536;2023-01-23T04:55:40;25.95;;;12.32;;
67776;SDS011;54576;52.020;5.536;2023-01-23T04:58:06;26.92;;;13.73;;
67776;SDS011;54576;52.020;5.536;2023-01-23T05:00:35;28.20;;;13.05;;
67776;SDS011;54576;52.020;5.536;2023-01-23T05:03:01;31.13;;;14.02;;
67776;SDS011;54576;52.020;5.536;2023-01-23T05:05:27;24.25;;;12.93;;
67776;SDS011;54576;52.020;5.536;2023-01-23T05:07:54;31.85;;;15.07;;
67776;SDS011;54576;52.020;5.536;2023-01-23T05:10:20;33.83;;;14.05;;
67776;SDS011;54576;52.020;5.536;2023-01-23T05:12:46;33.50;;;13.60;;
67776;SDS011;54576;52.020;5.536;2023-01-23T05:15:12;30.35;;;13.48;;
67776;SDS011;54576;52.020;5.536;2023-01-23T05:17:37;36.35;;;14.45;;
67776;SDS011;54576;52.020;5.536;2023-01-23T05:20:03;34.25;;;14.10;;
67776;SDS011;54576;52.020;5.536;2023-01-23T05:22:29;24.00;;;13.90;;
67776;SDS011;54576;52.020;5.536;2023-01-23T05:24:57;31.45;;;14.48;;
67776;SDS011;54576;52.020;5.536;2023-01-23T05:27:25;27.77;;;14.35;;
67776;SDS011;54576;52.020;5.536;2023-01-23T05:29:50;21.88;;;12.55;;
67776;SDS011;54576;52.020;5.536;2023-01-23T05:32:17;25.60;;;13.95;;
67776;SDS011;54576;52.020;5.536;2023-01-23T05:34:42;24.92;;;14.02;;
67776;SDS011;54576;52.020;5.536;2023-01-23T05:37:09;33.80;;;13.90;;
67776;SDS011;54576;52.020;5.536;2023-01-23T05:39:34;32.17;;;14.88;;
67776;SDS011;54576;52.020;5.536;2023-01-23T05:42:01;39.95;;;14.50;;
67776;SDS011;54576;52.020;5.536;2023-01-23T05:44:27;31.77;;;15.13;;
67776;SDS011;54576;52.020;5.536;2023-01-23T05:46:52;27.85;;;13.45;;
67776;SDS011;54576;52.020;5.536;2023-01-23T05:49:18;33.55;;;14.88;;
67776;SDS011;54576;52.020;5.536;2023-01-23T05:51:44;33.55;;;14.70;;
67776;SDS011;54576;52.020;5.536;2023-01-23T05:54:09;31.52;;;14.80;;
67776;SDS011;54576;52.020;5.536;2023-01-23T05:56:35;26.92;;;13.95;;
67776;SDS011;54576;52.020;5.536;2023-01-23T05:59:04;31.50;;;14.53;;
67776;SDS011;54576;52.020;5.536;2023-01-23T06:01:31;26.23;;;13.43;;
67776;SDS011;54576;52.020;5.536;2023-01-23T06:03:57;30.65;;;14.57;;
67776;SDS011;54576;52.020;5.536;2023-01-23T06:06:22;31.35;;;15.45;;
67776;SDS011;54576;52.020;5.536;2023-01-23T06:08:48;30.58;;;15.07;;
67776;SDS011;54576;52.020;5.536;2023-01-23T06:11:15;33.47;;;14.65;;
67776;SDS011;54576;52.020;5.536;2023-01-23T06:13:40;34.28;;;15.95;;
67776;SDS011;54576;52.020;5.536;2023-01-23T06:16:06;33.47;;;14.70;;
67776;SDS011;54576;52.020;5.536;2023-01-23T06:18:34;25.70;;;13.20;;
67776;SDS011;54576;52.020;5.536;2023-01-23T06:21:00;36.53;;;16.02;;
67776;SDS011;54576;52.020;5.536;2023-01-23T06:23:26;31.38;;;15.32;;
67776;SDS011;54576;52.020;5.536;2023-01-23T06:25:52;34.05;;;14.93;;
67776;SDS011;54576;52.020;5.536;2023-01-23T06:28:18;28.05;;;14.77;;
67776;SDS011;54576;52.020;5.536;2023-01-23T06:30:43;25.95;;;14.77;;
67776;SDS011;54576;52.020;5.536;2023-01-23T06:33:09;29.58;;;14.43;;
67776;SDS011;54576;52.020;5.536;2023-01-23T06:35:34;26.35;;;14.93;;
67776;SDS011;54576;52.020;5.536;2023-01-23T06:38:00;28.75;;;14.30;;
67776;SDS011;54576;52.020;5.536;2023-01-23T06:40:25;29.13;;;15.50;;
67776;SDS011;54576;52.020;5.536;2023-01-23T06:42:53;32.20;;;14.93;;
67776;SDS011;54576;52.020;5.536;2023-01-23T06:45:19;31.23;;;15.95;;
67776;SDS011;54576;52.020;5.536;2023-01-23T06:47:45;32.10;;;15.10;;
67776;SDS011;54576;52.020;5.536;2023-01-23T06:50:10;28.88;;;14.95;;
67776;SDS011;54576;52.020;5.536;2023-01-23T06:52:36;31.38;;;15.05;;
67776;SDS011;54576;52.020;5.536;2023-01-23T06:55:01;30.90;;;15.60;;
67776;SDS011;54576;52.020;5.536;2023-01-23T06:57:27;30.65;;;15.45;;
67776;SDS011;54576;52.020;5.536;2023-01-23T06:59:52;30.83;;;15.20;;
67776;SDS011;54576;52.020;5.536;2023-01-23T07:02:18;25.33;;;13.57;;
67776;SDS011;54576;52.020;5.536;2023-01-23T07:04:43;24.25;;;12.57;;
67776;SDS011;54576;52.020;5.536;2023-01-23T07:07:11;24.27;;;11.32;;
67776;SDS011;54576;52.020;5.536;2023-01-23T07:09:37;25.92;;;14.25;;
67776;SDS011;54576;52.020;5.536;2023-01-23T07:12:03;28.08;;;15.63;;
67776;SDS011;54576;52.020;5.536;2023-01-23T07:14:28;29.80;;;15.40;;
67776;SDS011;54576;52.020;5.536;2023-01-23T07:16:54;30.65;;;15.85;;
67776;SDS011;54576;52.020;5.536;2023-01-23T07:19:20;28.75;;;15.05;;
67776;SDS011;54576;52.020;5.536;2023-01-23T07:21:49;32.97;;;16.17;;
67776;SDS011;54576;52.020;5.536;2023-01-23T07:24:15;34.60;;;16.27;;
67776;SDS011;54576;52.020;5.536;2023-01-23T07:26:43;31.10;;;16.45;;
67776;SDS011;54576;52.020;5.536;2023-01-23T07:29:09;38.53;;;16.02;;
67776;SDS011;54576;52.020;5.536;2023-01-23T07:31:35;33.97;;;16.15;;
67776;SDS011;54576;52.020;5.536;2023-01-23T07:34:00;33.97;;;15.70;;
67776;SDS011;54576;52.020;5.536;2023-01-23T07:36:26;26.40;;;16.67;;
67776;SDS011;54576;52.020;5.536;2023-01-23T07:38:53;29.95;;;16.85;;
67776;SDS011;54576;52.020;5.536;2023-01-23T07:41:19;29.58;;;16.08;;
67776;SDS011;54576;52.020;5.536;2023-01-23T07:43:45;29.77;;;17.02;;
67776;SDS011;54576;52.020;5.536;2023-01-23T07:46:11;47.92;;;16.35;;
67776;SDS011;54576;52.020;5.536;2023-01-23T07:48:36;37.28;;;17.77;;
67776;SDS011;54576;52.020;5.536;2023-01-23T07:51:02;25.45;;;14.93;;
67776;SDS011;54576;52.020;5.536;2023-01-23T07:53:29;30.35;;;15.55;;
67776;SDS011;54576;52.020;5.536;2023-01-23T07:55:54;27.23;;;16.40;;
67776;SDS011;54576;52.020;5.536;2023-01-23T07:58:20;41.88;;;16.60;;
67776;SDS011;54576;52.020;5.536;2023-01-23T08:00:45;34.42;;;16.23;;
67776;SDS011;54576;52.020;5.536;2023-01-23T08:03:11;40.25;;;17.13;;
67776;SDS011;54576;52.020;5.536;2023-01-23T08:05:37;26.63;;;16.25;;
67776;SDS011;54576;52.020;5.536;2023-01-23T08:08:02;26.05;;;16.17;;
67776;SDS011;54576;52.020;5.536;2023-01-23T08:10:28;32.35;;;16.13;;
67776;SDS011;54576;52.020;5.536;2023-01-23T08:12:54;35.25;;;18.83;;
67776;SDS011;54576;52.020;5.536;2023-01-23T08:15:20;32.70;;;16.23;;
67776;SDS011;54576;52.020;5.536;2023-01-23T08:17:46;28.58;;;14.88;;
67776;SDS011;54576;52.020;5.536;2023-01-23T08:20:13;36.55;;;19.17;;
67776;SDS011;54576;52.020;5.536;2023-01-23T08:22:39;31.00;;;17.25;;
67776;SDS011;54576;52.020;5.536;2023-01-23T08:25:06;28.65;;;15.73;;
67776;SDS011;54576;52.020;5.536;2023-01-23T08:27:33;29.65;;;18.05;;
67776;SDS011;54576;52.020;5.536;2023-01-23T08:29:59;43.78;;;17.83;;
67776;SDS011;54576;52.020;5.536;2023-01-23T08:32:24;29.73;;;16.25;;
67776;SDS011;54576;52.020;5.536;2023-01-23T08:34:50;31.48;;;16.92;;
67776;SDS011;54576;52.020;5.536;2023-01-23T08:37:15;24.05;;;15.30;;
67776;SDS011;54576;52.020;5.536;2023-01-23T08:39:41;28.67;;;16.73;;
67776;SDS011;54576;52.020;5.536;2023-01-23T08:42:07;27.10;;;16.17;;
67776;SDS011;54576;52.020;5.536;2023-01-23T08:44:32;35.45;;;15.93;;
67776;SDS011;54576;52.020;5.536;2023-01-23T08:47:01;40.13;;;17.65;;
67776;SDS011;54576;52.020;5.536;2023-01-23T08:49:27;26.95;;;17.08;;
67776;SDS011;54576;52.020;5.536;2023-01-23T08:51:52;31.88;;;17.73;;
67776;SDS011;54576;52.020;5.536;2023-01-23T08:54:18;25.42;;;15.13;;
67776;SDS011;54576;52.020;5.536;2023-01-23T08:56:44;25.95;;;14.35;;
67776;SDS011;54576;52.020;5.536;2023-01-23T08:59:09;30.15;;;15.88;;
67776;SDS011;54576;52.020;5.536;2023-01-23T09:01:35;27.67;;;15.20;;
67776;SDS011;54576;52.020;5.536;2023-01-23T09:04:01;29.75;;;14.90;;
67776;SDS011;54576;52.020;5.536;2023-01-23T09:06:26;27.42;;;14.90;;
67776;SDS011;54576;52.020;5.536;2023-01-23T09:08:52;26.25;;;15.52;;
67776;SDS011;54576;52.020;5.536;2023-01-23T09:11:17;27.25;;;15.10;;
67776;SDS011;54576;52.020;5.536;2023-01-23T09:13:46;28.00;;;15.52;;
67776;SDS011;54576;52.020;5.536;2023-01-23T09:18:39;26.88;;;15.00;;
67776;SDS011;54576;52.020;5.536;2023-01-23T09:21:08;25.95;;;14.32;;
67776;SDS011;54576;52.020;5.536;2023-01-23T09:23:35;27.45;;;15.07;;
67776;SDS011;54576;52.020;5.536;2023-01-23T09:26:03;30.17;;;15.32;;
67776;SDS011;54576;52.020;5.536;2023-01-23T09:28:33;23.85;;;15.55;;
67776;SDS011;54576;52.020;5.536;2023-01-23T09:31:04;26.77;;;16.23;;
67776;SDS011;54576;52.020;5.536;2023-01-23T09:33:31;30.52;;;14.85;;
67776;SDS011;54576;52.020;5.536;2023-01-23T09:36:00;35.47;;;15.73;;
67776;SDS011;54576;52.020;5.536;2023-01-23T09:38:26;23.45;;;13.68;;
67776;SDS011;54576;52.020;5.536;2023-01-23T09:40:53;25.25;;;13.40;;
67776;SDS011;54576;52.020;5.536;2023-01-23T09:51:50;22.67;;;12.88;;
67776;SDS011;54576;52.020;5.536;2023-01-23T09:57:18;23.33;;;13.75;;
67776;SDS011;54576;52.020;5.536;2023-01-23T09:59:51;22.60;;;13.70;;
67776;SDS011;54576;52.020;5.536;2023-01-23T10:02:23;22.23;;;14.32;;
67776;SDS011;54576;52.020;5.536;2023-01-23T10:04:50;20.13;;;13.35;;
67776;SDS011;54576;52.020;5.536;2023-01-23T10:10:30;22.48;;;13.10;;
67776;SDS011;54576;52.020;5.536;2023-01-23T10:13:13;16.63;;;11.80;;
67776;SDS011;54576;52.020;5.536;2023-01-23T10:21:16;21.30;;;13.55;;
67776;SDS011;54576;52.020;5.536;2023-01-23T10:27:13;20.70;;;13.35;;
67776;SDS011;54576;52.020;5.536;2023-01-23T10:29:43;27.88;;;13.07;;
67776;SDS011;54576;52.020;5.536;2023-01-23T10:32:28;17.98;;;12.68;;
67776;SDS011;54576;52.020;5.536;2023-01-23T10:35:02;19.27;;;11.90;;
67776;SDS011;54576;52.020;5.536;2023-01-23T10:37:46;19.65;;;12.32;;
67776;SDS011;54576;52.020;5.536;2023-01-23T10:40:17;24.38;;;13.02;;
67776;SDS011;54576;52.020;5.536;2023-01-23T10:43:11;22.55;;;12.35;;
67776;SDS011;54576;52.020;5.536;2023-01-23T10:45:38;17.17;;;11.05;;
67776;SDS011;54576;52.020;5.536;2023-01-23T10:50:52;22.00;;;12.75;;
67776;SDS011;54576;52.020;5.536;2023-01-23T10:53:19;20.50;;;11.73;;
67776;SDS011;54576;52.020;5.536;2023-01-23T10:55:45;17.23;;;10.77;;
67776;SDS011;54576;52.020;5.536;2023-01-23T10:58:21;20.48;;;11.90;;
67776;SDS011;54576;52.020;5.536;2023-01-23T11:00:58;20.20;;;11.95;;
67776;SDS011;54576;52.020;5.536;2023-01-23T11:03:29;17.85;;;11.52;;
67776;SDS011;54576;52.020;5.536;2023-01-23T11:08:30;18.73;;;11.68;;
67776;SDS011;54576;52.020;5.536;2023-01-23T11:13:39;19.45;;;11.73;;
67776;SDS011;54576;52.020;5.536;2023-01-23T11:16:07;20.92;;;11.32;;
67776;SDS011;54576;52.020;5.536;2023-01-23T11:18:43;15.45;;;11.32;;
67776;SDS011;54576;52.020;5.536;2023-01-23T11:21:23;15.88;;;10.57;;
67776;SDS011;54576;52.020;5.536;2023-01-23T11:26:50;20.52;;;11.05;;
67776;SDS011;54576;52.020;5.536;2023-01-23T11:29:27;18.35;;;10.93;;
67776;SDS011;54576;52.020;5.536;2023-01-23T11:34:36;10.48;;;8.40;;
67776;SDS011;54576;52.020;5.536;2023-01-23T11:37:18;16.00;;;10.73;;
67776;SDS011;54576;52.020;5.536;2023-01-23T11:39:49;15.55;;;9.90;;
67776;SDS011;54576;52.020;5.536;2023-01-23T11:42:25;14.23;;;10.18;;
67776;SDS011;54576;52.020;5.536;2023-01-23T11:44:55;19.55;;;10.85;;
67776;SDS011;54576;52.020;5.536;2023-01-23T11:50:27;20.25;;;11.20;;
67776;SDS011;54576;52.020;5.536;2023-01-23T11:59:14;16.85;;;9.60;;
67776;SDS011;54576;52.020;5.536;2023-01-23T12:02:06;15.05;;;9.80;;
67776;SDS011;54576;52.020;5.536;2023-01-23T12:07:33;18.15;;;9.48;;
67776;SDS011;54576;52.020;5.536;2023-01-23T12:10:22;11.00;;;6.38;;
67776;SDS011;54576;52.020;5.536;2023-01-23T12:12:57;16.98;;;9.57;;
67776;SDS011;54576;52.020;5.536;2023-01-23T12:15:44;15.57;;;10.15;;
67776;SDS011;54576;52.020;5.536;2023-01-23T12:18:22;18.15;;;11.07;;
67776;SDS011;54576;52.020;5.536;2023-01-23T12:21:13;15.13;;;10.30;;
67776;SDS011;54576;52.020;5.536;2023-01-23T12:26:53;13.55;;;9.57;;
67776;SDS011;54576;52.020;5.536;2023-01-23T12:32:26;19.65;;;10.05;;
67776;SDS011;54576;52.020;5.536;2023-01-23T12:38:09;20.98;;;10.20;;
67776;SDS011;54576;52.020;5.536;2023-01-23T12:43:53;18.30;;;10.70;;
67776;SDS011;54576;52.020;5.536;2023-01-23T12:46:50;20.80;;;11.60;;
67776;SDS011;54576;52.020;5.536;2023-01-23T12:52:20;18.40;;;10.52;;
67776;SDS011;54576;52.020;5.536;2023-01-23T12:55:15;16.35;;;10.02;;
67776;SDS011;54576;52.020;5.536;2023-01-23T13:00:28;20.05;;;10.55;;
67776;SDS011;54576;52.020;5.536;2023-01-23T13:03:07;12.70;;;9.82;;
67776;SDS011;54576;52.020;5.536;2023-01-23T13:08:30;13.95;;;10.07;;
67776;SDS011;54576;52.020;5.536;2023-01-23T13:13:44;15.68;;;10.20;;
67776;SDS011;54576;52.020;5.536;2023-01-23T13:16:15;17.77;;;10.15;;
67776;SDS011;54576;52.020;5.536;2023-01-23T13:18:54;13.27;;;10.35;;
67776;SDS011;54576;52.020;5.536;2023-01-23T13:21:39;18.55;;;10.27;;
67776;SDS011;54576;52.020;5.536;2023-01-23T13:32:51;14.27;;;9.35;;
67776;SDS011;54576;52.020;5.536;2023-01-23T13:38:12;15.20;;;9.90;;
67776;SDS011;54576;52.020;5.536;2023-01-23T13:49:22;15.50;;;10.32;;
67776;SDS011;54576;52.020;5.536;2023-01-23T13:52:10;18.25;;;10.95;;
67776;SDS011;54576;52.020;5.536;2023-01-23T13:54:55;17.17;;;11.20;;
67776;SDS011;54576;52.020;5.536;2023-01-23T13:57:40;14.35;;;10.18;;
67776;SDS011;54576;52.020;5.536;2023-01-23T14:00:11;17.40;;;10.80;;
67776;SDS011;54576;52.020;5.536;2023-01-23T14:02:38;14.48;;;9.95;;
67776;SDS011;54576;52.020;5.536;2023-01-23T14:05:28;14.55;;;10.32;;
67776;SDS011;54576;52.020;5.536;2023-01-23T14:08:15;15.60;;;11.43;;
67776;SDS011;54576;52.020;5.536;2023-01-23T14:10:44;12.30;;;9.25;;
67776;SDS011;54576;52.020;5.536;2023-01-23T14:13:12;16.67;;;10.38;;
67776;SDS011;54576;52.020;5.536;2023-01-23T14:15:39;22.73;;;11.50;;
67776;SDS011;54576;52.020;5.536;2023-01-23T14:20:58;17.58;;;11.57;;
67776;SDS011;54576;52.020;5.536;2023-01-23T14:23:34;20.80;;;11.68;;
67776;SDS011;54576;52.020;5.536;2023-01-23T14:26:01;18.33;;;12.43;;
67776;SDS011;54576;52.020;5.536;2023-01-23T14:28:28;18.38;;;11.63;;
67776;SDS011;54576;52.020;5.536;2023-01-23T14:30:55;20.05;;;12.10;;
67776;SDS011;54576;52.020;5.536;2023-01-23T14:33:21;19.73;;;11.93;;
67776;SDS011;54576;52.020;5.536;2023-01-23T14:35:47;16.42;;;11.10;;
67776;SDS011;54576;52.020;5.536;2023-01-23T14:38:17;15.52;;;10.80;;
67776;SDS011;54576;52.020;5.536;2023-01-23T14:40:45;16.80;;;11.15;;
67776;SDS011;54576;52.020;5.536;2023-01-23T14:43:12;17.45;;;11.07;;
67776;SDS011;54576;52.020;5.536;2023-01-23T14:45:42;18.58;;;11.10;;
67776;SDS011;54576;52.020;5.536;2023-01-23T14:48:12;20.00;;;12.13;;
67776;SDS011;54576;52.020;5.536;2023-01-23T14:50:40;21.33;;;12.07;;
67776;SDS011;54576;52.020;5.536;2023-01-23T14:53:10;20.88;;;12.27;;
67776;SDS011;54576;52.020;5.536;2023-01-23T14:55:38;17.90;;;11.35;;
67776;SDS011;54576;52.020;5.536;2023-01-23T14:58:04;17.05;;;11.38;;
67776;SDS011;54576;52.020;5.536;2023-01-23T15:00:31;18.98;;;11.00;;
67776;SDS011;54576;52.020;5.536;2023-01-23T15:02:58;16.67;;;10.70;;
67776;SDS011;54576;52.020;5.536;2023-01-23T15:05:28;17.55;;;11.10;;
67776;SDS011;54576;52.020;5.536;2023-01-23T15:10:27;17.95;;;11.27;;
67776;SDS011;54576;52.020;5.536;2023-01-23T15:12:55;25.58;;;12.95;;
67776;SDS011;54576;52.020;5.536;2023-01-23T15:15:22;18.90;;;12.10;;
67776;SDS011;54576;52.020;5.536;2023-01-23T15:17:49;29.58;;;11.77;;
67776;SDS011;54576;52.020;5.536;2023-01-23T15:20:37;18.85;;;9.73;;
67776;SDS011;54576;52.020;5.536;2023-01-23T15:23:27;18.67;;;10.95;;
67776;SDS011;54576;52.020;5.536;2023-01-23T15:33:46;16.50;;;11.32;;
67776;SDS011;54576;52.020;5.536;2023-01-23T15:36:22;15.02;;;10.23;;
67776;SDS011;54576;52.020;5.536;2023-01-23T15:38:50;20.17;;;12.50;;
67776;SDS011;54576;52.020;5.536;2023-01-23T15:41:17;20.08;;;11.57;;
67776;SDS011;54576;52.020;5.536;2023-01-23T15:43:42;19.50;;;11.73;;
67776;SDS011;54576;52.020;5.536;2023-01-23T15:46:11;17.17;;;11.43;;
67776;SDS011;54576;52.020;5.536;2023-01-23T15:48:36;20.02;;;11.38;;
67776;SDS011;54576;52.020;5.536;2023-01-23T15:51:02;15.35;;;10.93;;
67776;SDS011;54576;52.020;5.536;2023-01-23T15:53:28;21.42;;;12.18;;
67776;SDS011;54576;52.020;5.536;2023-01-23T15:55:54;17.27;;;12.05;;
67776;SDS011;54576;52.020;5.536;2023-01-23T15:58:20;17.52;;;10.75;;
67776;SDS011;54576;52.020;5.536;2023-01-23T16:00:45;20.67;;;11.15;;
67776;SDS011;54576;52.020;5.536;2023-01-23T16:03:11;17.02;;;11.30;;
67776;SDS011;54576;52.020;5.536;2023-01-23T16:05:38;20.25;;;12.23;;
67776;SDS011;54576;52.020;5.536;2023-01-23T16:08:05;15.63;;;11.63;;
67776;SDS011;54576;52.020;5.536;2023-01-23T16:10:44;17.98;;;11.80;;
67776;SDS011;54576;52.020;5.536;2023-01-23T16:13:11;20.05;;;12.07;;
67776;SDS011;54576;52.020;5.536;2023-01-23T16:15:38;18.50;;;11.65;;
67776;SDS011;54576;52.020;5.536;2023-01-23T16:18:04;23.15;;;13.13;;
67776;SDS011;54576;52.020;5.536;2023-01-23T16:20:34;19.63;;;11.70;;
67776;SDS011;54576;52.020;5.536;2023-01-23T16:23:04;18.85;;;12.05;;
67776;SDS011;54576;52.020;5.536;2023-01-23T16:25:37;18.65;;;11.52;;
67776;SDS011;54576;52.020;5.536;2023-01-23T16:28:04;15.50;;;10.73;;
67776;SDS011;54576;52.020;5.536;2023-01-23T16:30:30;19.73;;;11.82;;